map of BIE home
BIE - Airport
Location
City:  Beatrice, Nebraska, United States
Name:Beatrice Municipal Airport
ICAO:KBIE
IATA:BIE
FAA LID:BIE

Details
Type:Airport (Airfield)
Use:Public/Civil
Latitude:4018'05"N (40.301278)
Longitude:9645'15"W (-96.754110)
Datum:WGS 1984
Elevation:1323 ft (403 m)
Variation:3.17E (WMM2015 magnetic declination)
-0.10 annual change
Runways:2
Longest:5602 × 100 ft (1707 × 30.5 m), paved

Time
Time Zone:UTC-6 (DST-5)
Local Time:

Weather
METAR:KBIE 131055Z AUTO 28008KT 10SM SCT110 02/M05 A2971 RMK AO2 T00201050

Related Locations
Nearby:
Farthest:MQZ: 10639 mi / 17122 km
Margaret River [Margaret River Airport], WA, AU

Find:

   beyond  
but within

Other Information
Maps:
NOTAMs:
Links:
Sources:

  
flag of United States
flag of Nebraska
  

Sectional Chart

Flight Planning
at skyvector.com

Satellite Image

Google Maps Satellite view

 

Copyright © 2004-2017 Karl L. Swartz. All rights reserved.
The Great Circle Mapper name and logo are trademarks of the Great Circle Mapper.
All other trademarks mentioned herein belong to their respective owners.
Please see credits for attibutions and further copyright information.

  Follow gcmap on Facebook Follow gcmap on Twitter Follow gcmap on Google+ GCmap on LinkedIn

hCard Microformat

Geo Microformat